Skip Navigation LinksHome page > Weather > Current weather Skip Navigation Links

Current Weather

Alert, Nunavut

For information only: do not use for flight planning or navigation.
Latest weather
Observation time Tuesday, October 21, 2014 3:00 PM EDT
Local time Tuesday, October 21, 2014 7:55 PM EDT
Flight conditions Instrument Meteorological Conditions
Winds
Wind direction West (260°)
Wind speed 14 mph
Visibility 5 mi.
Present weather light snow, mist
Sky condition
Ceiling 500 ft. broken clouds
Cloud layer broken clouds 500 ft.
Cloud layer overcast 1,000 ft.
Temperature -6°F
Dewpoint -13°F
Altimeter 30.03 in.Hg
Derived measurements
Relative humidity 70%
Wind chill -26°F
Density altitude -4731 ft.
Sea-level pressure 30.05 in.Hg
Remarks
Last observation of the day.
METAR CYLT 211900Z 26012KT 5SM -SN BR BKN005 OVC010 M21/M25 A3003 RMK ST7ST1 WND ESTD LAST OBS/NXT 220400 UTC SLP176

Settings

Location code

InnerDrive.Weather 4.0.5399.0 Release CLR 4.0.30319.34014
Copyright ©2014 Inner Drive Technology. All rights reserved. Portions Copyright ©1986-2014 David Braverman.

Find weather

Site navigation


Skip Navigation Links

Place info

Page info

PayPal - The safer, easier way to pay online!

Return home.

Copyright ©2014 Inner Drive Technology. Purveyors of fine, hand-crafted computer software. Page printed 2014-10-21T23:55:40 UTC.